createdAt,value
2022-12-23T00:00:27.618Z,99378.00
2022-12-23T00:02:54.417Z,99383.00
2022-12-23T00:05:21.011Z,99366.00
2022-12-23T00:07:47.618Z,99376.00
2022-12-23T00:10:14.157Z,99372.00
2022-12-23T00:12:59.165Z,99370.00
2022-12-23T00:15:25.746Z,99378.00
2022-12-23T00:17:52.261Z,99369.00
2022-12-23T00:20:18.949Z,99362.00
2022-12-23T00:23:04.003Z,99361.00
2022-12-23T00:25:40.273Z,99359.00
2022-12-23T00:28:17.707Z,99352.00
2022-12-23T00:30:49.448Z,99339.00
2022-12-23T00:33:17.890Z,99340.00
2022-12-23T00:35:45.140Z,99328.00
2022-12-23T00:38:12.242Z,99335.00
2022-12-23T00:40:57.278Z,99325.00
2022-12-23T00:43:23.760Z,99339.00
2022-12-23T00:45:50.364Z,99327.00
2022-12-23T00:48:35.397Z,99326.00
2022-12-23T00:51:01.942Z,99322.00
2022-12-23T00:53:28.539Z,99323.00
2022-12-23T00:55:55.079Z,99320.00
2022-12-23T00:58:21.768Z,99320.00
2022-12-23T01:01:06.888Z,99327.00
2022-12-23T01:03:52.052Z,99335.00
2022-12-23T01:06:18.612Z,99331.00
2022-12-23T01:08:45.164Z,99316.00
2022-12-23T01:11:12.419Z,99307.00
2022-12-23T01:13:39.425Z,99322.00
2022-12-23T01:16:15.012Z,99326.00
2022-12-23T01:18:43.595Z,99322.00
2022-12-23T01:21:10.831Z,99321.00
2022-12-23T01:23:37.523Z,99320.00
2022-12-23T01:26:05.714Z,99314.00
2022-12-23T01:28:32.828Z,99320.00
2022-12-23T01:31:01.231Z,99313.00
2022-12-23T01:33:27.906Z,99298.00
2022-12-23T01:36:06.134Z,99307.00
2022-12-23T01:38:33.795Z,99313.00
2022-12-23T01:41:00.295Z,99297.00
2022-12-23T01:43:50.762Z,99286.00
2022-12-23T01:46:18.430Z,99306.00
2022-12-23T01:48:48.574Z,99291.00
2022-12-23T01:51:27.474Z,99294.00
2022-12-23T01:54:01.008Z,99291.00
2022-12-23T01:56:29.239Z,99289.00
2022-12-23T01:58:59.469Z,99292.00
2022-12-23T02:01:57.210Z,99291.00
2022-12-23T02:04:24.796Z,99289.00
2022-12-23T02:07:10.463Z,99282.00
2022-12-23T02:09:40.563Z,99287.00
2022-12-23T02:12:28.990Z,99282.00
2022-12-23T02:15:36.332Z,99284.00
2022-12-23T02:18:02.883Z,99287.00
2022-12-23T02:20:57.325Z,99277.00
2022-12-23T02:23:47.132Z,99267.00
2022-12-23T02:26:25.388Z,99272.00
2022-12-23T02:29:03.938Z,99269.00
2022-12-23T02:31:42.910Z,99265.00
2022-12-23T02:34:43.798Z,99268.00
2022-12-23T02:37:25.450Z,99256.00
2022-12-23T02:40:10.923Z,99250.00
2022-12-23T02:42:46.208Z,99251.00
2022-12-23T02:45:19.136Z,99244.00
2022-12-23T02:47:58.930Z,99232.00
2022-12-23T02:50:32.831Z,99235.00
2022-12-23T02:53:04.101Z,99244.00
2022-12-23T02:55:34.694Z,99245.00
2022-12-23T02:58:05.395Z,99232.00
2022-12-23T03:00:32.411Z,99241.00
2022-12-23T03:02:59.270Z,99229.00
2022-12-23T03:05:39.227Z,99227.00
2022-12-23T03:08:08.194Z,99219.00
2022-12-23T03:10:40.622Z,99219.00
2022-12-23T03:13:13.301Z,99218.00
2022-12-23T03:15:55.440Z,99216.00
2022-12-23T03:18:45.213Z,99206.00
2022-12-23T03:21:31.434Z,99217.00
2022-12-23T03:24:09.827Z,99215.00
2022-12-23T03:26:45.590Z,99207.00
2022-12-23T03:29:16.475Z,99208.00
2022-12-23T03:31:44.443Z,99205.00
2022-12-23T03:34:15.497Z,99206.00
2022-12-23T03:36:47.456Z,99204.00
2022-12-23T03:39:17.569Z,99203.00
2022-12-23T03:41:48.176Z,99209.00
2022-12-23T03:44:20.969Z,99197.00
2022-12-23T03:46:52.381Z,99201.00
2022-12-23T03:49:26.064Z,99202.00
2022-12-23T03:52:03.134Z,99182.00
2022-12-23T03:54:33.761Z,99191.00
2022-12-23T03:57:03.136Z,99182.00
2022-12-23T03:59:32.176Z,99185.00
2022-12-23T04:02:08.103Z,99191.00
2022-12-23T04:05:00.822Z,99184.00
2022-12-23T04:08:02.873Z,99185.00
2022-12-23T04:10:29.332Z,99187.00
2022-12-23T04:12:55.953Z,99173.00
2022-12-23T04:15:24.302Z,99170.00
2022-12-23T04:17:51.665Z,99175.00
2022-12-23T04:20:18.632Z,99171.00
2022-12-23T04:22:45.176Z,99168.00
2022-12-23T04:25:13.374Z,99171.00
2022-12-23T04:27:40.362Z,99168.00
2022-12-23T04:30:09.132Z,99156.00
2022-12-23T04:32:35.679Z,99153.00
2022-12-23T04:35:02.291Z,99150.00
2022-12-23T04:37:28.827Z,99158.00
2022-12-23T04:39:55.349Z,99153.00
2022-12-23T04:42:21.932Z,99157.00
2022-12-23T04:44:48.460Z,99163.00
2022-12-23T04:47:15.014Z,99155.00
2022-12-23T04:49:41.584Z,99151.00
2022-12-23T04:52:08.092Z,99149.00
2022-12-23T04:54:34.606Z,99155.00
2022-12-23T04:57:01.132Z,99158.00
2022-12-23T04:59:27.720Z,99150.00
2022-12-23T05:01:54.266Z,99153.00
2022-12-23T05:04:20.965Z,99156.00
2022-12-23T05:06:47.615Z,99163.00
2022-12-23T05:09:14.157Z,99143.00
2022-12-23T05:11:42.503Z,99166.00
2022-12-23T05:14:12.686Z,99159.00
2022-12-23T05:16:39.321Z,99155.00
2022-12-23T05:19:06.140Z,99159.00
2022-12-23T05:21:32.646Z,99160.00
2022-12-23T05:23:59.174Z,99156.00
2022-12-23T05:26:25.811Z,99152.00
2022-12-23T05:28:52.328Z,99157.00
2022-12-23T05:31:18.967Z,99166.00
2022-12-23T05:33:45.616Z,99169.00
2022-12-23T05:36:12.511Z,99150.00
2022-12-23T05:38:39.038Z,99150.00
2022-12-23T05:41:05.685Z,99149.00
2022-12-23T05:43:32.231Z,99162.00
2022-12-23T05:45:58.775Z,99157.00
2022-12-23T05:48:25.423Z,99160.00
2022-12-23T05:50:52.943Z,99162.00
2022-12-23T05:53:20.377Z,99164.00
2022-12-23T05:55:47.177Z,99159.00
2022-12-23T05:58:13.743Z,99159.00
2022-12-23T06:00:43.719Z,99161.00
2022-12-23T06:03:11.712Z,99160.00
2022-12-23T06:05:39.502Z,99158.00
2022-12-23T06:08:06.132Z,99158.00
2022-12-23T06:10:32.707Z,99166.00
2022-12-23T06:12:59.240Z,99157.00
2022-12-23T06:15:25.774Z,99172.00
2022-12-23T06:17:52.262Z,99160.00
2022-12-23T06:20:21.742Z,99174.00
2022-12-23T06:22:55.247Z,99169.00
2022-12-23T06:25:21.842Z,99176.00
2022-12-23T06:27:48.396Z,99185.00
2022-12-23T06:30:15.046Z,99165.00
2022-12-23T06:32:41.602Z,99186.00
2022-12-23T06:35:08.688Z,99186.00
2022-12-23T06:37:35.344Z,99187.00
2022-12-23T06:40:01.929Z,99197.00
2022-12-23T06:42:28.593Z,99205.00
2022-12-23T06:44:55.174Z,99194.00
2022-12-23T06:47:21.687Z,99208.00
2022-12-23T06:49:48.224Z,99202.00
2022-12-23T06:52:14.740Z,99213.00
2022-12-23T06:54:41.781Z,99223.00
2022-12-23T06:57:08.296Z,99218.00
2022-12-23T06:59:34.829Z,99225.00
2022-12-23T07:02:11.267Z,99228.00
2022-12-23T07:04:37.897Z,99229.00
2022-12-23T07:07:04.404Z,99229.00
2022-12-23T07:09:30.933Z,99228.00
2022-12-23T07:11:57.446Z,99235.00
2022-12-23T07:14:23.943Z,99244.00
2022-12-23T07:16:50.606Z,99228.00
2022-12-23T07:19:17.122Z,99254.00
2022-12-23T07:21:43.681Z,99251.00
2022-12-23T07:24:10.409Z,99250.00
2022-12-23T07:26:36.905Z,99250.00
2022-12-23T07:29:04.613Z,99237.00
2022-12-23T07:31:31.204Z,99255.00
2022-12-23T07:33:57.780Z,99246.00
2022-12-23T07:36:24.321Z,99268.00
2022-12-23T07:38:51.531Z,99263.00
2022-12-23T07:41:18.232Z,99269.00
2022-12-23T07:43:44.777Z,99267.00
2022-12-23T07:46:11.407Z,99270.00
2022-12-23T07:48:39.833Z,99248.00
2022-12-23T07:51:06.485Z,99261.00
2022-12-23T07:53:33.156Z,99260.00
2022-12-23T07:55:59.804Z,99253.00
2022-12-23T07:58:26.405Z,99258.00
2022-12-23T08:01:02.864Z,99258.00
2022-12-23T08:03:29.734Z,99266.00
2022-12-23T08:06:04.740Z,99270.00
2022-12-23T08:08:31.501Z,99272.00
2022-12-23T08:11:04.720Z,99271.00
2022-12-23T08:13:33.272Z,99280.00
2022-12-23T08:16:00.851Z,99282.00
2022-12-23T08:18:30.097Z,99277.00
2022-12-23T08:21:01.651Z,99282.00
2022-12-23T08:23:29.627Z,99295.00
2022-12-23T08:26:04.935Z,99285.00
2022-12-23T08:28:31.973Z,99286.00
2022-12-23T08:31:13.039Z,99291.00
2022-12-23T08:33:41.293Z,99283.00
2022-12-23T08:36:10.336Z,99284.00
2022-12-23T08:38:37.282Z,99296.00
2022-12-23T08:41:04.036Z,99308.00
2022-12-23T08:43:35.786Z,99279.00
2022-12-23T08:46:03.255Z,99304.00
2022-12-23T08:48:29.853Z,99320.00
2022-12-23T08:50:56.421Z,99316.00
2022-12-23T08:53:23.011Z,99313.00
2022-12-23T08:55:49.617Z,99307.00
2022-12-23T08:58:16.417Z,99300.00
2022-12-23T09:00:43.075Z,99314.00
2022-12-23T09:03:09.857Z,99317.00
2022-12-23T09:05:40.913Z,99320.00
2022-12-23T09:08:08.850Z,99312.00
2022-12-23T09:10:41.109Z,99324.00
2022-12-23T09:13:07.863Z,99324.00
2022-12-23T09:15:39.608Z,99330.00
2022-12-23T09:18:06.326Z,99332.00
2022-12-23T09:20:32.856Z,99331.00
2022-12-23T09:23:01.284Z,99330.00
2022-12-23T09:25:27.896Z,99339.00
2022-12-23T09:27:54.438Z,99345.00
2022-12-23T09:30:20.954Z,99352.00
2022-12-23T09:32:47.692Z,99351.00
2022-12-23T09:35:14.228Z,99370.00
2022-12-23T09:37:40.898Z,99372.00
2022-12-23T09:40:08.289Z,99368.00
2022-12-23T09:42:53.942Z,99384.00
2022-12-23T09:45:40.500Z,99380.00
2022-12-23T09:48:12.676Z,99390.00
2022-12-23T09:50:40.017Z,99403.00
2022-12-23T09:53:11.700Z,99397.00
2022-12-23T09:55:57.811Z,99400.00
2022-12-23T09:58:30.395Z,99397.00
2022-12-23T10:01:02.972Z,99405.00
2022-12-23T10:03:51.801Z,99397.00
2022-12-23T10:06:26.529Z,99411.00
2022-12-23T10:08:57.006Z,99419.00
2022-12-23T10:11:24.075Z,99419.00
2022-12-23T10:13:54.204Z,99409.00
2022-12-23T10:16:24.149Z,99422.00
2022-12-23T10:19:22.515Z,99417.00
2022-12-23T10:22:06.198Z,99409.00
2022-12-23T10:24:41.795Z,99410.00
2022-12-23T10:27:35.645Z,99421.00
2022-12-23T10:30:34.362Z,99416.00
2022-12-23T10:33:20.370Z,99422.00
2022-12-23T10:36:07.411Z,99421.00
2022-12-23T10:39:20.195Z,99416.00
2022-12-23T10:42:03.505Z,99424.00
2022-12-23T10:44:59.389Z,99417.00
2022-12-23T10:47:37.807Z,99412.00
2022-12-23T10:50:26.807Z,99421.00
2022-12-23T10:52:56.731Z,99409.00
2022-12-23T10:55:33.546Z,99417.00
2022-12-23T10:58:19.665Z,99407.00
2022-12-23T11:00:54.337Z,99404.00
2022-12-23T11:03:36.899Z,99400.00
2022-12-23T11:06:07.512Z,99402.00
2022-12-23T11:08:35.607Z,99394.00
2022-12-23T11:11:03.585Z,99397.00
2022-12-23T11:13:40.886Z,99406.00
2022-12-23T11:16:28.853Z,99412.00
2022-12-23T11:19:09.837Z,99412.00
2022-12-23T11:21:54.124Z,99404.00
2022-12-23T11:24:22.611Z,99404.00
2022-12-23T11:27:07.229Z,99399.00
2022-12-23T11:29:36.679Z,99405.00
2022-12-23T11:32:16.129Z,99405.00
2022-12-23T11:34:45.197Z,99413.00
2022-12-23T11:37:26.086Z,99421.00
2022-12-23T11:39:52.753Z,99428.00
2022-12-23T11:42:26.614Z,99429.00
2022-12-23T11:44:55.040Z,99443.00
2022-12-23T11:47:41.054Z,99446.00
2022-12-23T11:50:20.523Z,99429.00
2022-12-23T11:52:58.763Z,99434.00
2022-12-23T11:55:29.684Z,99439.00
2022-12-23T11:57:56.588Z,99440.00
2022-12-23T12:00:40.111Z,99439.00
2022-12-23T12:03:07.404Z,99451.00
2022-12-23T12:05:37.745Z,99448.00
2022-12-23T12:08:09.544Z,99444.00
2022-12-23T12:10:41.423Z,99463.00
2022-12-23T12:13:33.342Z,99465.00
2022-12-23T12:16:10.114Z,99473.00
2022-12-23T12:18:38.445Z,99474.00
2022-12-23T12:21:07.443Z,99478.00
2022-12-23T12:23:48.732Z,99476.00
2022-12-23T12:26:27.817Z,99471.00
2022-12-23T12:29:00.806Z,99472.00
2022-12-23T12:31:32.253Z,99482.00
2022-12-23T12:34:17.442Z,99485.00
2022-12-23T12:36:52.750Z,99472.00
2022-12-23T12:39:36.094Z,99467.00
2022-12-23T12:42:14.034Z,99463.00
2022-12-23T12:44:55.651Z,99463.00
2022-12-23T12:50:28.087Z,99455.00
2022-12-23T12:52:58.205Z,99460.00
2022-12-23T12:55:37.487Z,99451.00
2022-12-23T12:58:04.105Z,99443.00
2022-12-23T13:00:40.942Z,99449.00
2022-12-23T13:03:10.643Z,99453.00
2022-12-23T13:05:54.245Z,99453.00
2022-12-23T13:08:59.207Z,99453.00
2022-12-23T13:11:35.471Z,99452.00
2022-12-23T13:14:32.645Z,99464.00
2022-12-23T13:17:05.125Z,99466.00
2022-12-23T13:20:12.626Z,99466.00
2022-12-23T13:22:39.519Z,99453.00
2022-12-23T13:25:17.807Z,99464.00
2022-12-23T13:28:04.447Z,99455.00
2022-12-23T13:30:47.385Z,99460.00
2022-12-23T13:33:18.341Z,99459.00
2022-12-23T13:36:06.168Z,99450.00
2022-12-23T13:38:42.194Z,99455.00
2022-12-23T13:41:31.639Z,99444.00
2022-12-23T13:44:00.647Z,99439.00
2022-12-23T13:46:27.192Z,99441.00
2022-12-23T13:49:06.602Z,99440.00
2022-12-23T13:51:42.611Z,99443.00
2022-12-23T13:54:47.239Z,99430.00
2022-12-23T13:57:21.186Z,99429.00
2022-12-23T14:00:05.436Z,99425.00
2022-12-23T14:02:41.911Z,99424.00
2022-12-23T14:05:40.779Z,99429.00
2022-12-23T14:08:19.879Z,99423.00
2022-12-23T14:11:19.824Z,99428.00
2022-12-23T14:13:59.559Z,99428.00
2022-12-23T14:16:35.119Z,99434.00
2022-12-23T14:19:26.499Z,99440.00
2022-12-23T14:22:11.725Z,99450.00
2022-12-23T14:24:49.783Z,99441.00
2022-12-23T14:27:41.273Z,99437.00
2022-12-23T14:30:31.925Z,99438.00
2022-12-23T14:33:00.187Z,99443.00
2022-12-23T14:35:46.650Z,99440.00
2022-12-23T14:38:16.201Z,99444.00
2022-12-23T14:40:42.652Z,99449.00
2022-12-23T14:43:27.709Z,99451.00
2022-12-23T14:45:56.271Z,99437.00
2022-12-23T14:49:09.571Z,99455.00
2022-12-23T14:51:39.638Z,99451.00
2022-12-23T14:54:09.143Z,99447.00
2022-12-23T14:56:38.588Z,99453.00
2022-12-23T14:59:26.878Z,99451.00
2022-12-23T15:02:14.453Z,99455.00
2022-12-23T15:04:54.132Z,99459.00
2022-12-23T15:07:38.275Z,99458.00
2022-12-23T15:10:07.105Z,99461.00
2022-12-23T15:12:38.849Z,99461.00
2022-12-23T15:15:20.648Z,99466.00
2022-12-23T15:17:47.722Z,99462.00
2022-12-23T15:20:22.063Z,99471.00
2022-12-23T15:22:48.915Z,99466.00
2022-12-23T15:25:29.904Z,99467.00
2022-12-23T15:28:01.611Z,99439.00
2022-12-23T15:30:33.907Z,99459.00
2022-12-23T15:33:03.602Z,99452.00
2022-12-23T15:35:33.111Z,99466.00
2022-12-23T15:37:59.951Z,99462.00
2022-12-23T15:40:32.633Z,99451.00
2022-12-23T15:43:00.128Z,99435.00
2022-12-23T15:45:36.865Z,99446.00
2022-12-23T15:48:05.818Z,99440.00
2022-12-23T15:50:40.313Z,99438.00
2022-12-23T15:53:13.181Z,99440.00
2022-12-23T15:55:40.808Z,99432.00
2022-12-23T15:58:08.515Z,99433.00
2022-12-23T16:00:39.162Z,99441.00
2022-12-23T16:03:10.369Z,99418.00
2022-12-23T16:05:43.054Z,99444.00
2022-12-23T16:08:15.991Z,99438.00
2022-12-23T16:11:04.536Z,99445.00
2022-12-23T16:13:31.709Z,99449.00
2022-12-23T16:16:18.501Z,99461.00
2022-12-23T16:18:47.949Z,99464.00
2022-12-23T16:21:14.663Z,99457.00
2022-12-23T16:23:49.768Z,99457.00
2022-12-23T16:26:16.360Z,99448.00
2022-12-23T16:28:45.237Z,99452.00
2022-12-23T16:31:16.544Z,99457.00
2022-12-23T16:33:54.861Z,99455.00
2022-12-23T16:36:27.682Z,99459.00
2022-12-23T16:39:00.864Z,99464.00
2022-12-23T16:41:27.444Z,99464.00
2022-12-23T16:43:53.949Z,99463.00
2022-12-23T16:46:24.410Z,99464.00
2022-12-23T16:49:04.599Z,99453.00
2022-12-23T16:51:34.275Z,99436.00
2022-12-23T16:54:01.865Z,99454.00
2022-12-23T16:56:30.895Z,99437.00
2022-12-23T16:58:57.462Z,99432.00
2022-12-23T17:01:25.088Z,99434.00
2022-12-23T17:03:51.923Z,99446.00
2022-12-23T17:06:19.050Z,99434.00
2022-12-23T17:08:45.618Z,99432.00
2022-12-23T17:11:23.348Z,99421.00
2022-12-23T17:13:50.035Z,99421.00
2022-12-23T17:16:20.017Z,99404.00
2022-12-23T17:18:50.272Z,99412.00
2022-12-23T17:21:30.035Z,99420.00
2022-12-23T17:24:06.520Z,99418.00
2022-12-23T17:26:33.281Z,99421.00
2022-12-23T17:28:59.797Z,99415.00
2022-12-23T17:31:27.372Z,99415.00
2022-12-23T17:33:54.464Z,99410.00
2022-12-23T17:36:21.634Z,99395.00
2022-12-23T17:38:48.237Z,99390.00
2022-12-23T17:41:35.001Z,99398.00
2022-12-23T17:44:01.584Z,99394.00
2022-12-23T17:46:29.178Z,99393.00
2022-12-23T17:48:58.077Z,99382.00
2022-12-23T17:51:26.079Z,99392.00
2022-12-23T17:53:58.341Z,99390.00
2022-12-23T17:56:27.429Z,99379.00
2022-12-23T17:58:54.135Z,99377.00
2022-12-23T18:01:24.179Z,99377.00
2022-12-23T18:03:50.994Z,99373.00
2022-12-23T18:06:19.546Z,99378.00
2022-12-23T18:08:46.398Z,99371.00
2022-12-23T18:11:23.043Z,99369.00
2022-12-23T18:13:53.189Z,99364.00
2022-12-23T18:16:20.019Z,99358.00
2022-12-23T18:18:47.271Z,99356.00
2022-12-23T18:21:26.531Z,99357.00
2022-12-23T18:23:54.450Z,99355.00
2022-12-23T18:26:21.041Z,99348.00
2022-12-23T18:28:47.684Z,99350.00
2022-12-23T18:31:20.997Z,99349.00
2022-12-23T18:33:47.750Z,99344.00
2022-12-23T18:36:25.321Z,99347.00
2022-12-23T18:38:52.584Z,99340.00
2022-12-23T18:41:20.583Z,99338.00
2022-12-23T18:43:47.319Z,99350.00
2022-12-23T18:46:13.890Z,99351.00
2022-12-23T18:48:40.479Z,99321.00
2022-12-23T18:51:07.162Z,99347.00
2022-12-23T18:53:33.865Z,99358.00
2022-12-23T18:56:00.383Z,99357.00
2022-12-23T18:58:26.900Z,99360.00
2022-12-23T19:00:54.134Z,99363.00
2022-12-23T19:03:24.759Z,99361.00
2022-12-23T19:05:52.498Z,99356.00
2022-12-23T19:08:25.884Z,99357.00
2022-12-23T19:10:53.911Z,99355.00
2022-12-23T19:13:20.465Z,99358.00
2022-12-23T19:15:47.055Z,99355.00
2022-12-23T19:18:18.638Z,99357.00
2022-12-23T19:20:46.421Z,99357.00
2022-12-23T19:23:14.513Z,99361.00
2022-12-23T19:25:52.558Z,99351.00
2022-12-23T19:28:21.578Z,99339.00
2022-12-23T19:30:48.728Z,99350.00
2022-12-23T19:33:18.465Z,99352.00
2022-12-23T19:35:48.133Z,99317.00
2022-12-23T19:38:15.072Z,99328.00
2022-12-23T19:40:41.784Z,99336.00
2022-12-23T19:43:13.215Z,99329.00
2022-12-23T19:45:41.125Z,99339.00
2022-12-23T19:48:08.904Z,99330.00
2022-12-23T19:50:41.027Z,99320.00
2022-12-23T19:53:10.951Z,99325.00
2022-12-23T19:55:40.064Z,99334.00
2022-12-23T19:58:06.651Z,99320.00
2022-12-23T20:00:37.027Z,99335.00
2022-12-23T20:03:04.676Z,99326.00
2022-12-23T20:05:31.310Z,99328.00
2022-12-23T20:08:03.849Z,99333.00
2022-12-23T20:10:30.857Z,99328.00
2022-12-23T20:13:00.619Z,99326.00
2022-12-23T20:15:29.836Z,99331.00
2022-12-23T20:18:01.231Z,99323.00
2022-12-23T20:20:30.976Z,99315.00
2022-12-23T20:22:57.634Z,99317.00
2022-12-23T20:25:24.366Z,99321.00
2022-12-23T20:27:51.265Z,99308.00
2022-12-23T20:30:18.064Z,99286.00
2022-12-23T20:32:44.993Z,99289.00
2022-12-23T20:35:12.158Z,99306.00
2022-12-23T20:37:42.375Z,99296.00
2022-12-23T20:40:14.615Z,99292.00
2022-12-23T20:42:41.667Z,99277.00
2022-12-23T20:45:09.458Z,99282.00
2022-12-23T20:47:36.170Z,99278.00
2022-12-23T20:50:06.443Z,99288.00
2022-12-23T20:52:33.611Z,99282.00
2022-12-23T20:55:01.709Z,99245.00
2022-12-23T20:57:32.084Z,99272.00
2022-12-23T21:00:01.666Z,99275.00
2022-12-23T21:02:28.365Z,99274.00
2022-12-23T21:04:55.263Z,99269.00
2022-12-23T21:07:22.096Z,99278.00
2022-12-23T21:09:48.907Z,99283.00
2022-12-23T21:12:15.618Z,99277.00
2022-12-23T21:14:42.355Z,99281.00
2022-12-23T21:17:10.115Z,99253.00
2022-12-23T21:19:37.111Z,99281.00
2022-12-23T21:22:03.979Z,99277.00
2022-12-23T21:24:30.792Z,99284.00
2022-12-23T21:26:57.569Z,99273.00
2022-12-23T21:29:24.395Z,99270.00
2022-12-23T21:31:51.349Z,99282.00
2022-12-23T21:34:18.127Z,99267.00
2022-12-23T21:36:44.784Z,99281.00
2022-12-23T21:39:14.597Z,99274.00
2022-12-23T21:41:41.879Z,99279.00
2022-12-23T21:44:09.751Z,99271.00
2022-12-23T21:46:36.547Z,99269.00
2022-12-23T21:49:03.408Z,99264.00
2022-12-23T21:51:39.416Z,99272.00
2022-12-23T21:54:07.212Z,99262.00
2022-12-23T21:56:33.938Z,99275.00
2022-12-23T21:59:02.741Z,99269.00
2022-12-23T22:01:29.985Z,99266.00
2022-12-23T22:03:57.031Z,99272.00
2022-12-23T22:06:29.327Z,99274.00
2022-12-23T22:08:56.396Z,99264.00
2022-12-23T22:11:25.869Z,99230.00
2022-12-23T22:13:53.141Z,99253.00
2022-12-23T22:16:22.154Z,99257.00
2022-12-23T22:18:49.443Z,99257.00
2022-12-23T22:21:21.463Z,99251.00
2022-12-23T22:23:49.406Z,99248.00
2022-12-23T22:26:24.247Z,99244.00
2022-12-23T22:28:52.316Z,99244.00
2022-12-23T22:31:34.280Z,99241.00
2022-12-23T22:34:01.089Z,99247.00
2022-12-23T22:36:28.967Z,99218.00
2022-12-23T22:38:57.785Z,99222.00
2022-12-23T22:41:27.853Z,99251.00
2022-12-23T22:43:55.443Z,99247.00
2022-12-23T22:46:24.434Z,99245.00
2022-12-23T22:48:51.966Z,99242.00
2022-12-23T22:51:22.026Z,99256.00
2022-12-23T22:53:48.809Z,99242.00
2022-12-23T22:56:16.772Z,99238.00
2022-12-23T22:58:43.399Z,99238.00
2022-12-23T23:01:23.113Z,99253.00
2022-12-23T23:03:54.139Z,99239.00
2022-12-23T23:06:20.731Z,99247.00
2022-12-23T23:08:47.267Z,99237.00
2022-12-23T23:11:13.791Z,99237.00
2022-12-23T23:13:40.285Z,99239.00
2022-12-23T23:16:07.140Z,99240.00
2022-12-23T23:18:34.168Z,99246.00
2022-12-23T23:21:01.417Z,99231.00
2022-12-23T23:23:28.021Z,99234.00
2022-12-23T23:25:54.650Z,99236.00
2022-12-23T23:28:21.217Z,99237.00
2022-12-23T23:30:47.964Z,99242.00
2022-12-23T23:33:14.535Z,99240.00
2022-12-23T23:35:41.053Z,99241.00
2022-12-23T23:38:08.489Z,99247.00
2022-12-23T23:40:35.223Z,99229.00
2022-12-23T23:43:01.917Z,99247.00
2022-12-23T23:45:28.684Z,99243.00
2022-12-23T23:47:55.630Z,99247.00
2022-12-23T23:50:22.531Z,99252.00
2022-12-23T23:52:49.152Z,99244.00
2022-12-23T23:55:15.816Z,99246.00
2022-12-23T23:57:44.672Z,99248.00
